• pl
  • eng

Awiacja
Kliknij na pogrubioną czerwoną nazwę, aby odkodować depeszę. 16:01 22.06.2018
  • WIND
  • SIGNIFICANT EURO
  • SIGNIFICANT
  • SIGMET
  • AIRMET
  • TAF FC
  • TAF FT
  • METAR GG30
  • METAR GG00


METAR EPBY 221400Z 25012KT 9999 SCT049 17/04 Q1015 =

METAR EPGD 221400Z 25015KT 220V280 9999 BKN035 16/07 Q1012 =

METAR EPKK 221400Z 27008KT 230V290 9999 SCT053 17/06 Q1017 =

METAR EPKT 221400Z 29012KT CAVOK 18/03 Q1016 =

METAR EPLB 221400Z 30008KT CAVOK 18/05 Q1014 =

METAR EPLL 221400Z 27018KT 240V300 9999 BKN045 15/04 Q1016 =

METAR EPMO 221400Z 27015KT CAVOK 18/03 Q1015 =

METAR EPPO 221400Z 23013KT 9999 FEW035 16/06 Q1016 =

METAR EPRA 221400Z 32010KT CAVOK 17/04 Q1015=

METAR EPRZ 221400Z 30012KT CAVOK 16/05 Q1016 =

METAR EPSC 221400Z 30013KT 9999 FEW027TCU 16/09 Q1015 =

METAR EPSY 221400Z 24011KT 200V300 CAVOK 17/04 Q1013=

METAR EPWA 221400Z 28012KT 250V310 CAVOK 18/05 Q1015 NOSIG=

METAR EPWR 221400Z 29010KT 250V350 9999 FEW040CB 16/04 Q1017 =

METAR EPZG 221400Z NIL=
 METAR EPZG
:Brak depeszy METAR z EPZG Zielona Góra Babimost z dnia 22 z godziny 14:00 UTC
Awiacja.imgw.pl jest pogodowym serwisem informacyjnym
Instytutu Meteorologii i Gospodarki Wodnej Państwowego Instytutu Badawczego.
Copyright IMGW PIB 2009-2011© Wszelkie prawa zastrzeżone.